Forest Green, Missouri
Current Conditions -  °F | °C
As of 8:35 AM on Monday 26 Jan 2015 (Local Time) from KVER Reporting Station
Clear Clear  
Wind Chill: 26°   Ceiling: Unl
Heat Index: 32°   Visibility: 10mi
Dew Point: 30°   Wind: 6mph
Humidity: 92%   Direction: 190°S
Pressure: 30.02"   Gusts: NA
Location:  39.4605°N, 92.8061°W
Report Text: KVER 261435Z AUTO 19005KT 10SM CLR 00/M01 A3002 RMK AO2 T10011013
Loading
Personal Weather Stations






























Interactive Weather Map New forecast layout! Learn more

10-Day Weather Forecast

Advertisements
Track Severe Weather on mobile